sensor_id;sensor_type;location;lat;lon;timestamp;pressure;altitude;pressure_sealevel;temperature;humidity
40285;BME280;25997;50.214;19.354;2024-01-06T00:02:52;96739.66;;;2.62;56.50
40285;BME280;25997;50.214;19.354;2024-01-06T00:05:56;96726.75;;;2.63;56.79
40285;BME280;25997;50.214;19.354;2024-01-06T00:09:00;96733.66;;;2.64;56.40
40285;BME280;25997;50.214;19.354;2024-01-06T00:12:04;96735.59;;;2.70;56.73
40285;BME280;25997;50.214;19.354;2024-01-06T00:15:07;96730.47;;;2.71;56.74
40285;BME280;25997;50.214;19.354;2024-01-06T00:18:09;96726.72;;;2.87;56.70
40285;BME280;25997;50.214;19.354;2024-01-06T00:21:13;96737.78;;;2.83;56.43
40285;BME280;25997;50.214;19.354;2024-01-06T00:24:16;96705.88;;;2.84;56.68
40285;BME280;25997;50.214;19.354;2024-01-06T00:27:19;96717.41;;;2.92;56.51
40285;BME280;25997;50.214;19.354;2024-01-06T00:30:21;96719.47;;;3.02;56.69
40285;BME280;25997;50.214;19.354;2024-01-06T00:33:23;96710.41;;;3.15;56.45
40285;BME280;25997;50.214;19.354;2024-01-06T00:36:27;96699.34;;;3.20;56.28
40285;BME280;25997;50.214;19.354;2024-01-06T00:39:30;96709.78;;;3.22;56.01
40285;BME280;25997;50.214;19.354;2024-01-06T00:42:32;96703.69;;;3.21;56.24
40285;BME280;25997;50.214;19.354;2024-01-06T00:45:34;96709.94;;;3.26;56.08
40285;BME280;25997;50.214;19.354;2024-01-06T00:48:38;96718.66;;;3.30;56.27
40285;BME280;25997;50.214;19.354;2024-01-06T00:51:42;96713.78;;;3.39;56.13
40285;BME280;25997;50.214;19.354;2024-01-06T00:54:45;96723.13;;;3.34;55.76
40285;BME280;25997;50.214;19.354;2024-01-06T00:57:48;96726.31;;;3.25;55.89
40285;BME280;25997;50.214;19.354;2024-01-06T01:00:50;96731.38;;;3.22;56.25
40285;BME280;25997;50.214;19.354;2024-01-06T01:03:53;96731.53;;;3.27;56.29
40285;BME280;25997;50.214;19.354;2024-01-06T01:06:57;96724.63;;;3.27;56.06
40285;BME280;25997;50.214;19.354;2024-01-06T01:10:00;96729.00;;;3.28;55.93
40285;BME280;25997;50.214;19.354;2024-01-06T01:13:02;96738.47;;;3.26;55.74
40285;BME280;25997;50.214;19.354;2024-01-06T01:16:05;96730.69;;;3.26;56.15
40285;BME280;25997;50.214;19.354;2024-01-06T01:19:08;96731.38;;;3.22;55.78
40285;BME280;25997;50.214;19.354;2024-01-06T01:22:12;96738.00;;;3.13;55.69
40285;BME280;25997;50.214;19.354;2024-01-06T01:25:14;96742.19;;;3.09;55.88
40285;BME280;25997;50.214;19.354;2024-01-06T01:28:17;96742.09;;;3.06;56.07
40285;BME280;25997;50.214;19.354;2024-01-06T01:31:20;96743.84;;;3.07;56.06
40285;BME280;25997;50.214;19.354;2024-01-06T01:34:22;96755.09;;;3.08;56.00
40285;BME280;25997;50.214;19.354;2024-01-06T01:37:26;96750.06;;;3.12;56.26
40285;BME280;25997;50.214;19.354;2024-01-06T01:40:28;96749.38;;;3.18;55.93
40285;BME280;25997;50.214;19.354;2024-01-06T01:43:31;96744.31;;;3.21;56.03
40285;BME280;25997;50.214;19.354;2024-01-06T01:46:33;96746.94;;;3.22;55.74
40285;BME280;25997;50.214;19.354;2024-01-06T01:49:36;96744.41;;;3.24;55.99
40285;BME280;25997;50.214;19.354;2024-01-06T01:52:41;96742.78;;;3.27;56.13
40285;BME280;25997;50.214;19.354;2024-01-06T01:55:45;96733.50;;;3.34;55.88
40285;BME280;25997;50.214;19.354;2024-01-06T01:58:49;96733.69;;;3.40;55.91
40285;BME280;25997;50.214;19.354;2024-01-06T02:01:51;96730.47;;;3.47;56.05
40285;BME280;25997;50.214;19.354;2024-01-06T02:04:55;96728.09;;;3.53;55.92
40285;BME280;25997;50.214;19.354;2024-01-06T02:07:59;96728.22;;;3.58;55.89
40285;BME280;25997;50.214;19.354;2024-01-06T02:11:02;96726.72;;;3.64;55.87
40285;BME280;25997;50.214;19.354;2024-01-06T02:14:05;96724.97;;;3.65;55.79
40285;BME280;25997;50.214;19.354;2024-01-06T02:17:07;96725.84;;;3.65;55.45
40285;BME280;25997;50.214;19.354;2024-01-06T02:20:11;96714.38;;;3.57;55.51
40285;BME280;25997;50.214;19.354;2024-01-06T02:23:16;96722.00;;;3.53;55.71
40285;BME280;25997;50.214;19.354;2024-01-06T02:26:19;96728.16;;;3.56;55.49
40285;BME280;25997;50.214;19.354;2024-01-06T02:29:21;96732.56;;;3.59;55.75
40285;BME280;25997;50.214;19.354;2024-01-06T02:32:23;96736.88;;;3.58;55.45
40285;BME280;25997;50.214;19.354;2024-01-06T02:35:26;96735.03;;;3.54;55.41
40285;BME280;25997;50.214;19.354;2024-01-06T02:38:30;96734.88;;;3.50;55.58
40285;BME280;25997;50.214;19.354;2024-01-06T02:41:32;96732.09;;;3.43;55.55
40285;BME280;25997;50.214;19.354;2024-01-06T02:44:35;96726.94;;;3.45;55.65
40285;BME280;25997;50.214;19.354;2024-01-06T02:47:37;96713.00;;;3.41;55.44
40285;BME280;25997;50.214;19.354;2024-01-06T02:50:39;96707.63;;;3.35;55.40
40285;BME280;25997;50.214;19.354;2024-01-06T02:53:43;96702.19;;;3.28;55.48
40285;BME280;25997;50.214;19.354;2024-01-06T02:56:46;96701.34;;;3.29;55.63
40285;BME280;25997;50.214;19.354;2024-01-06T02:59:48;96697.88;;;3.28;55.41
40285;BME280;25997;50.214;19.354;2024-01-06T03:02:51;96699.69;;;3.31;55.55
40285;BME280;25997;50.214;19.354;2024-01-06T03:05:53;96691.06;;;3.32;55.50
40285;BME280;25997;50.214;19.354;2024-01-06T03:08:57;96700.72;;;3.36;55.53
40285;BME280;25997;50.214;19.354;2024-01-06T03:12:00;96705.03;;;3.35;54.97
40285;BME280;25997;50.214;19.354;2024-01-06T03:15:02;96693.56;;;3.29;55.09
40285;BME280;25997;50.214;19.354;2024-01-06T03:18:05;96694.28;;;3.25;55.21
40285;BME280;25997;50.214;19.354;2024-01-06T03:21:16;96696.88;;;3.25;55.35
40285;BME280;25997;50.214;19.354;2024-01-06T03:24:20;96691.63;;;3.22;55.17
40285;BME280;25997;50.214;19.354;2024-01-06T03:27:23;96700.22;;;3.21;55.27
40285;BME280;25997;50.214;19.354;2024-01-06T03:30:25;96698.31;;;3.15;55.40
40285;BME280;25997;50.214;19.354;2024-01-06T03:33:27;96698.94;;;3.08;55.58
40285;BME280;25997;50.214;19.354;2024-01-06T03:36:30;96697.25;;;3.09;55.73
40285;BME280;25997;50.214;19.354;2024-01-06T03:39:34;96694.66;;;3.09;55.62
40285;BME280;25997;50.214;19.354;2024-01-06T03:42:36;96698.84;;;3.05;55.86
40285;BME280;25997;50.214;19.354;2024-01-06T03:45:38;96696.56;;;3.14;56.34
40285;BME280;25997;50.214;19.354;2024-01-06T03:48:41;96695.34;;;3.30;55.92
40285;BME280;25997;50.214;19.354;2024-01-06T03:51:43;96688.66;;;3.38;55.90
40285;BME280;25997;50.214;19.354;2024-01-06T03:54:47;96692.44;;;3.47;55.52
40285;BME280;25997;50.214;19.354;2024-01-06T03:57:49;96691.81;;;3.55;55.75
40285;BME280;25997;50.214;19.354;2024-01-06T04:00:51;96681.59;;;3.61;55.76
40285;BME280;25997;50.214;19.354;2024-01-06T04:03:54;96678.34;;;3.66;56.08
40285;BME280;25997;50.214;19.354;2024-01-06T04:06:56;96670.69;;;3.71;55.87
40285;BME280;25997;50.214;19.354;2024-01-06T04:10:00;96675.78;;;3.68;56.04
40285;BME280;25997;50.214;19.354;2024-01-06T04:13:03;96682.78;;;3.70;56.29
40285;BME280;25997;50.214;19.354;2024-01-06T04:16:06;96688.38;;;3.84;56.13
40285;BME280;25997;50.214;19.354;2024-01-06T04:19:08;96698.91;;;3.88;55.74
40285;BME280;25997;50.214;19.354;2024-01-06T04:22:12;96690.78;;;3.78;55.71
40285;BME280;25997;50.214;19.354;2024-01-06T04:25:16;96703.81;;;3.79;55.96
40285;BME280;25997;50.214;19.354;2024-01-06T04:28:19;96702.19;;;3.83;55.99
40285;BME280;25997;50.214;19.354;2024-01-06T04:31:21;96708.25;;;3.83;55.86
40285;BME280;25997;50.214;19.354;2024-01-06T04:34:24;96714.28;;;3.82;55.76
40285;BME280;25997;50.214;19.354;2024-01-06T04:37:26;96715.00;;;3.78;55.86
40285;BME280;25997;50.214;19.354;2024-01-06T04:40:30;96718.41;;;3.76;55.82
40285;BME280;25997;50.214;19.354;2024-01-06T04:43:32;96713.22;;;3.76;55.79
40285;BME280;25997;50.214;19.354;2024-01-06T04:46:34;96716.66;;;3.75;55.58
40285;BME280;25997;50.214;19.354;2024-01-06T04:49:37;96717.31;;;3.69;55.50
40285;BME280;25997;50.214;19.354;2024-01-06T04:52:39;96711.91;;;3.62;55.70
40285;BME280;25997;50.214;19.354;2024-01-06T04:55:43;96715.16;;;3.55;55.93
40285;BME280;25997;50.214;19.354;2024-01-06T04:58:45;96718.56;;;3.54;56.02
40285;BME280;25997;50.214;19.354;2024-01-06T05:01:48;96716.03;;;3.55;56.07
40285;BME280;25997;50.214;19.354;2024-01-06T05:04:52;96725.38;;;3.50;55.83
40285;BME280;25997;50.214;19.354;2024-01-06T05:07:54;96725.38;;;3.50;55.92
40285;BME280;25997;50.214;19.354;2024-01-06T05:10:59;96728.88;;;3.51;56.06
40285;BME280;25997;50.214;19.354;2024-01-06T05:14:02;96720.22;;;3.52;55.97
40285;BME280;25997;50.214;19.354;2024-01-06T05:17:04;96727.13;;;3.51;56.08
40285;BME280;25997;50.214;19.354;2024-01-06T05:20:07;96729.88;;;3.56;56.05
40285;BME280;25997;50.214;19.354;2024-01-06T05:23:10;96726.19;;;3.49;55.81
40285;BME280;25997;50.214;19.354;2024-01-06T05:26:13;96725.19;;;3.44;56.06
40285;BME280;25997;50.214;19.354;2024-01-06T05:29:16;96725.22;;;3.45;56.13
40285;BME280;25997;50.214;19.354;2024-01-06T05:32:18;96730.69;;;3.53;56.40
40285;BME280;25997;50.214;19.354;2024-01-06T05:35:21;96737.88;;;3.62;56.36
40285;BME280;25997;50.214;19.354;2024-01-06T05:38:24;96733.13;;;3.75;56.19
40285;BME280;25997;50.214;19.354;2024-01-06T05:41:27;96732.41;;;3.81;56.09
40285;BME280;25997;50.214;19.354;2024-01-06T05:44:30;96737.75;;;3.85;55.66
40285;BME280;25997;50.214;19.354;2024-01-06T05:47:33;96732.69;;;3.90;55.96
40285;BME280;25997;50.214;19.354;2024-01-06T05:50:35;96730.25;;;3.96;56.00
40285;BME280;25997;50.214;19.354;2024-01-06T05:53:37;96731.13;;;3.95;55.77
40285;BME280;25997;50.214;19.354;2024-01-06T05:56:41;96724.94;;;3.91;55.85
40285;BME280;25997;50.214;19.354;2024-01-06T05:59:44;96731.06;;;3.93;55.97
40285;BME280;25997;50.214;19.354;2024-01-06T06:02:46;96726.06;;;3.99;56.01
40285;BME280;25997;50.214;19.354;2024-01-06T06:05:49;96728.81;;;4.04;55.96
40285;BME280;25997;50.214;19.354;2024-01-06T06:08:51;96739.25;;;4.07;55.72
40285;BME280;25997;50.214;19.354;2024-01-06T06:11:55;96738.34;;;4.05;55.82
40285;BME280;25997;50.214;19.354;2024-01-06T06:14:57;96744.31;;;4.02;55.85
40285;BME280;25997;50.214;19.354;2024-01-06T06:18:00;96749.47;;;4.01;55.66
40285;BME280;25997;50.214;19.354;2024-01-06T06:21:03;96742.41;;;3.95;55.64
40285;BME280;25997;50.214;19.354;2024-01-06T06:24:05;96741.88;;;3.79;55.28
40285;BME280;25997;50.214;19.354;2024-01-06T06:27:10;96744.00;;;3.64;55.89
40285;BME280;25997;50.214;19.354;2024-01-06T06:30:13;96748.91;;;3.56;55.87
40285;BME280;25997;50.214;19.354;2024-01-06T06:33:15;96748.84;;;3.53;56.16
40285;BME280;25997;50.214;19.354;2024-01-06T06:36:18;96756.78;;;3.58;56.28
40285;BME280;25997;50.214;19.354;2024-01-06T06:39:20;96756.09;;;3.65;56.39
40285;BME280;25997;50.214;19.354;2024-01-06T06:42:24;96752.88;;;3.72;56.14
40285;BME280;25997;50.214;19.354;2024-01-06T06:45:27;96751.22;;;3.74;56.21
40285;BME280;25997;50.214;19.354;2024-01-06T06:48:29;96757.44;;;3.79;56.14
40285;BME280;25997;50.214;19.354;2024-01-06T06:51:32;96756.06;;;3.90;56.25
40285;BME280;25997;50.214;19.354;2024-01-06T06:54:34;96752.91;;;4.00;56.10
40285;BME280;25997;50.214;19.354;2024-01-06T06:57:38;96754.63;;;3.99;55.89
40285;BME280;25997;50.214;19.354;2024-01-06T07:00:41;96762.34;;;3.98;56.03
40285;BME280;25997;50.214;19.354;2024-01-06T07:03:44;96761.97;;;4.14;56.18
40285;BME280;25997;50.214;19.354;2024-01-06T07:06:46;96758.91;;;4.27;55.78
40285;BME280;25997;50.214;19.354;2024-01-06T07:09:49;96755.69;;;4.36;55.64
40285;BME280;25997;50.214;19.354;2024-01-06T07:12:53;96753.97;;;4.36;55.45
40285;BME280;25997;50.214;19.354;2024-01-06T07:15:55;96752.25;;;4.35;55.68
40285;BME280;25997;50.214;19.354;2024-01-06T07:18:57;96760.88;;;4.36;55.66
40285;BME280;25997;50.214;19.354;2024-01-06T07:22:00;96762.81;;;4.41;55.72
40285;BME280;25997;50.214;19.354;2024-01-06T07:25:03;96756.84;;;4.45;55.65
40285;BME280;25997;50.214;19.354;2024-01-06T07:28:07;96768.31;;;4.53;55.71
40285;BME280;25997;50.214;19.354;2024-01-06T07:31:10;96775.53;;;4.62;55.91
40285;BME280;25997;50.214;19.354;2024-01-06T07:34:12;96771.41;;;4.70;55.58
40285;BME280;25997;50.214;19.354;2024-01-06T07:37:15;96767.28;;;4.75;55.44
40285;BME280;25997;50.214;19.354;2024-01-06T07:40:17;96770.69;;;4.74;55.48
40285;BME280;25997;50.214;19.354;2024-01-06T07:43:21;96766.22;;;4.70;55.35
40285;BME280;25997;50.214;19.354;2024-01-06T07:46:24;96778.44;;;4.71;55.63
40285;BME280;25997;50.214;19.354;2024-01-06T07:49:26;96770.66;;;4.72;55.37
40285;BME280;25997;50.214;19.354;2024-01-06T07:52:28;96774.16;;;4.73;55.42
40285;BME280;25997;50.214;19.354;2024-01-06T07:55:31;96785.06;;;4.63;55.51
40285;BME280;25997;50.214;19.354;2024-01-06T07:58:35;96790.38;;;4.66;55.64
40285;BME280;25997;50.214;19.354;2024-01-06T08:01:37;96786.97;;;4.68;55.41
40285;BME280;25997;50.214;19.354;2024-01-06T08:04:39;96789.59;;;4.68;55.39
40285;BME280;25997;50.214;19.354;2024-01-06T08:07:42;96784.47;;;4.71;55.57
40285;BME280;25997;50.214;19.354;2024-01-06T08:10:44;96784.28;;;4.65;55.10
40285;BME280;25997;50.214;19.354;2024-01-06T08:13:48;96797.41;;;4.70;55.39
40285;BME280;25997;50.214;19.354;2024-01-06T08:16:50;96800.97;;;4.72;55.22
40285;BME280;25997;50.214;19.354;2024-01-06T08:19:53;96801.22;;;4.81;55.58
40285;BME280;25997;50.214;19.354;2024-01-06T08:22:56;96805.75;;;4.86;55.28
40285;BME280;25997;50.214;19.354;2024-01-06T08:25:58;96812.00;;;4.93;55.57
40285;BME280;25997;50.214;19.354;2024-01-06T08:29:02;96815.81;;;5.07;55.54
40285;BME280;25997;50.214;19.354;2024-01-06T08:32:05;96817.88;;;5.19;55.45
40285;BME280;25997;50.214;19.354;2024-01-06T08:35:09;96826.81;;;5.28;55.01
40285;BME280;25997;50.214;19.354;2024-01-06T08:38:11;96831.13;;;5.26;54.88
40285;BME280;25997;50.214;19.354;2024-01-06T08:41:14;96828.56;;;5.29;55.38
40285;BME280;25997;50.214;19.354;2024-01-06T08:44:18;96833.00;;;5.33;55.00
40285;BME280;25997;50.214;19.354;2024-01-06T08:47:20;96828.00;;;5.39;55.42
40285;BME280;25997;50.214;19.354;2024-01-06T08:50:22;96826.47;;;5.47;55.44
40285;BME280;25997;50.214;19.354;2024-01-06T08:53:25;96830.88;;;5.51;55.35
40285;BME280;25997;50.214;19.354;2024-01-06T08:56:34;96836.44;;;5.65;55.64
40285;BME280;25997;50.214;19.354;2024-01-06T08:59:38;96833.16;;;5.72;55.51
40285;BME280;25997;50.214;19.354;2024-01-06T09:02:41;96831.47;;;5.74;55.54
40285;BME280;25997;50.214;19.354;2024-01-06T09:05:43;96836.09;;;5.84;55.54
40285;BME280;25997;50.214;19.354;2024-01-06T09:08:45;96837.94;;;5.90;55.28
40285;BME280;25997;50.214;19.354;2024-01-06T09:12:13;96835.34;;;5.90;54.91
40285;BME280;25997;50.214;19.354;2024-01-06T09:15:17;96837.03;;;5.88;55.24
40285;BME280;25997;50.214;19.354;2024-01-06T09:18:19;96834.44;;;5.88;55.01
40285;BME280;25997;50.214;19.354;2024-01-06T09:21:22;96824.03;;;5.89;55.12
40285;BME280;25997;50.214;19.354;2024-01-06T09:24:24;96832.66;;;5.87;55.25
40285;BME280;25997;50.214;19.354;2024-01-06T09:27:27;96830.91;;;5.86;55.31
40285;BME280;25997;50.214;19.354;2024-01-06T09:30:30;96826.63;;;5.88;55.45
40285;BME280;25997;50.214;19.354;2024-01-06T09:33:33;96836.31;;;5.93;55.30
40285;BME280;25997;50.214;19.354;2024-01-06T09:36:36;96829.44;;;5.97;55.16
40285;BME280;25997;50.214;19.354;2024-01-06T09:39:38;96831.97;;;5.94;55.29
40285;BME280;25997;50.214;19.354;2024-01-06T09:43:06;96837.25;;;5.95;54.93
40285;BME280;25997;50.214;19.354;2024-01-06T09:46:15;96830.25;;;5.94;55.34
40285;BME280;25997;50.214;19.354;2024-01-06T09:49:23;96832.75;;;5.91;55.28
40285;BME280;25997;50.214;19.354;2024-01-06T09:52:27;96824.84;;;5.87;55.55
40285;BME280;25997;50.214;19.354;2024-01-06T09:55:31;96835.34;;;5.90;55.88
40285;BME280;25997;50.214;19.354;2024-01-06T10:02:29;96838.75;;;5.87;55.60
40285;BME280;25997;50.214;19.354;2024-01-06T10:06:01;96834.44;;;5.88;55.42
40285;BME280;25997;50.214;19.354;2024-01-06T10:13:22;96832.41;;;5.76;55.82
40285;BME280;25997;50.214;19.354;2024-01-06T10:16:25;96842.00;;;5.79;55.69
40285;BME280;25997;50.214;19.354;2024-01-06T10:19:29;96833.28;;;5.77;55.82
40285;BME280;25997;50.214;19.354;2024-01-06T10:22:31;96829.88;;;5.79;55.72
40285;BME280;25997;50.214;19.354;2024-01-06T10:25:59;96830.78;;;5.80;55.69
40285;BME280;25997;50.214;19.354;2024-01-06T10:29:01;96831.47;;;5.74;56.11
40285;BME280;25997;50.214;19.354;2024-01-06T10:32:04;96824.69;;;5.81;56.25
40285;BME280;25997;50.214;19.354;2024-01-06T10:35:08;96834.31;;;5.83;56.25
40285;BME280;25997;50.214;19.354;2024-01-06T10:38:11;96833.50;;;5.86;56.22
40285;BME280;25997;50.214;19.354;2024-01-06T10:41:41;96833.53;;;5.87;56.31
40285;BME280;25997;50.214;19.354;2024-01-06T10:44:46;96828.34;;;5.87;56.31
40285;BME280;25997;50.214;19.354;2024-01-06T10:47:49;96826.63;;;5.89;56.39
40285;BME280;25997;50.214;19.354;2024-01-06T10:50:55;96829.34;;;5.92;56.52
40285;BME280;25997;50.214;19.354;2024-01-06T10:53:58;96831.13;;;5.93;56.37
40285;BME280;25997;50.214;19.354;2024-01-06T11:01:21;96827.75;;;5.99;56.53
40285;BME280;25997;50.214;19.354;2024-01-06T11:04:25;96828.59;;;5.98;56.94
40285;BME280;25997;50.214;19.354;2024-01-06T11:11:45;96819.25;;;6.06;56.87
40285;BME280;25997;50.214;19.354;2024-01-06T11:14:49;96827.19;;;6.10;56.75
40285;BME280;25997;50.214;19.354;2024-01-06T11:22:34;96824.84;;;6.22;56.66
40285;BME280;25997;50.214;19.354;2024-01-06T11:25:41;96822.97;;;6.15;56.76
40285;BME280;25997;50.214;19.354;2024-01-06T11:29:09;96823.88;;;6.17;56.90
40285;BME280;25997;50.214;19.354;2024-01-06T11:32:19;96821.28;;;6.19;56.93
40285;BME280;25997;50.214;19.354;2024-01-06T11:35:22;96818.72;;;6.20;56.95
40285;BME280;25997;50.214;19.354;2024-01-06T11:38:27;96822.19;;;6.21;57.04
40285;BME280;25997;50.214;19.354;2024-01-06T11:41:47;96820.41;;;6.18;56.99
40285;BME280;25997;50.214;19.354;2024-01-06T11:45:17;96809.97;;;6.18;57.12
40285;BME280;25997;50.214;19.354;2024-01-06T11:48:21;96807.34;;;6.17;57.52
40285;BME280;25997;50.214;19.354;2024-01-06T11:51:25;96803.13;;;6.22;57.35
40285;BME280;25997;50.214;19.354;2024-01-06T11:54:29;96804.84;;;6.21;57.53
40285;BME280;25997;50.214;19.354;2024-01-06T11:57:33;96798.03;;;6.26;57.44
40285;BME280;25997;50.214;19.354;2024-01-06T12:04:29;96802.47;;;6.30;57.42
40285;BME280;25997;50.214;19.354;2024-01-06T12:07:31;96801.34;;;6.19;57.49
40285;BME280;25997;50.214;19.354;2024-01-06T12:10:34;96808.16;;;6.14;57.61
40285;BME280;25997;50.214;19.354;2024-01-06T12:13:36;96804.63;;;6.12;57.88
40285;BME280;25997;50.214;19.354;2024-01-06T12:17:05;96800.34;;;6.16;57.71
40285;BME280;25997;50.214;19.354;2024-01-06T12:20:10;96807.31;;;6.15;57.98
40285;BME280;25997;50.214;19.354;2024-01-06T12:23:23;96810.88;;;6.19;57.91
40285;BME280;25997;50.214;19.354;2024-01-06T12:26:26;96812.56;;;6.17;57.93
40285;BME280;25997;50.214;19.354;2024-01-06T12:29:31;96818.59;;;6.16;58.02
40285;BME280;25997;50.214;19.354;2024-01-06T12:37:17;96815.28;;;6.21;57.78
40285;BME280;25997;50.214;19.354;2024-01-06T12:40:20;96810.97;;;6.23;58.05
40285;BME280;25997;50.214;19.354;2024-01-06T12:47:17;96824.72;;;6.18;57.73
40285;BME280;25997;50.214;19.354;2024-01-06T12:50:20;96831.59;;;6.14;58.06
40285;BME280;25997;50.214;19.354;2024-01-06T12:53:24;96830.59;;;6.09;57.92
40285;BME280;25997;50.214;19.354;2024-01-06T12:57:42;96833.78;;;5.98;58.09
40285;BME280;25997;50.214;19.354;2024-01-06T13:01:10;96827.66;;;5.96;58.00
40285;BME280;25997;50.214;19.354;2024-01-06T13:04:13;96833.63;;;5.90;58.23
40285;BME280;25997;50.214;19.354;2024-01-06T13:07:16;96829.13;;;5.85;58.21
40285;BME280;25997;50.214;19.354;2024-01-06T13:14:37;96831.25;;;5.65;58.53
40285;BME280;25997;50.214;19.354;2024-01-06T13:31:22;96851.41;;;5.39;58.34
40285;BME280;25997;50.214;19.354;2024-01-06T13:38:42;96866.94;;;5.36;58.37
40285;BME280;25997;50.214;19.354;2024-01-06T13:41:45;96860.81;;;5.34;58.56
40285;BME280;25997;50.214;19.354;2024-01-06T13:45:15;96854.72;;;5.34;58.29
40285;BME280;25997;50.214;19.354;2024-01-06T13:53:00;96858.06;;;5.28;58.56
40285;BME280;25997;50.214;19.354;2024-01-06T14:09:32;96858.97;;;4.99;58.57
40285;BME280;25997;50.214;19.354;2024-01-06T14:12:34;96870.19;;;4.98;58.64
40285;BME280;25997;50.214;19.354;2024-01-06T14:15:37;96876.88;;;4.88;58.76
40285;BME280;25997;50.214;19.354;2024-01-06T14:18:40;96880.13;;;4.81;58.88
40285;BME280;25997;50.214;19.354;2024-01-06T14:21:43;96877.44;;;4.80;58.84
40285;BME280;25997;50.214;19.354;2024-01-06T14:24:47;96891.06;;;4.71;58.98
40285;BME280;25997;50.214;19.354;2024-01-06T14:27:49;96897.75;;;4.65;59.07
40285;BME280;25997;50.214;19.354;2024-01-06T14:30:51;96901.25;;;4.65;59.05
40285;BME280;25997;50.214;19.354;2024-01-06T14:33:54;96906.31;;;4.61;59.04
40285;BME280;25997;50.214;19.354;2024-01-06T14:36:56;96905.25;;;4.54;59.11
40285;BME280;25997;50.214;19.354;2024-01-06T14:40:01;96902.59;;;4.53;59.07
40285;BME280;25997;50.214;19.354;2024-01-06T14:43:06;96904.28;;;4.51;59.12
40285;BME280;25997;50.214;19.354;2024-01-06T14:46:08;96912.06;;;4.51;59.01
40285;BME280;25997;50.214;19.354;2024-01-06T14:49:11;96907.75;;;4.51;59.02
40285;BME280;25997;50.214;19.354;2024-01-06T14:52:13;96907.06;;;4.57;58.85
40285;BME280;25997;50.214;19.354;2024-01-06T14:55:17;96911.97;;;4.48;58.84
40285;BME280;25997;50.214;19.354;2024-01-06T14:58:20;96910.72;;;4.35;59.23
40285;BME280;25997;50.214;19.354;2024-01-06T15:01:22;96920.03;;;4.29;59.13
40285;BME280;25997;50.214;19.354;2024-01-06T15:04:25;96923.50;;;4.29;59.36
40285;BME280;25997;50.214;19.354;2024-01-06T15:07:27;96929.63;;;4.31;59.21
40285;BME280;25997;50.214;19.354;2024-01-06T15:10:34;96933.41;;;4.41;59.17
40285;BME280;25997;50.214;19.354;2024-01-06T15:13:36;96939.28;;;4.35;58.80
40285;BME280;25997;50.214;19.354;2024-01-06T15:16:39;96943.72;;;4.38;59.09
40285;BME280;25997;50.214;19.354;2024-01-06T15:19:41;96944.69;;;4.41;58.83
40285;BME280;25997;50.214;19.354;2024-01-06T15:22:44;96945.56;;;4.42;58.85
40285;BME280;25997;50.214;19.354;2024-01-06T15:25:48;96942.19;;;4.44;58.65
40285;BME280;25997;50.214;19.354;2024-01-06T15:28:51;96947.09;;;4.35;58.84
40285;BME280;25997;50.214;19.354;2024-01-06T15:31:53;96950.63;;;4.37;58.88
40285;BME280;25997;50.214;19.354;2024-01-06T15:34:58;96941.97;;;4.38;58.74
40285;BME280;25997;50.214;19.354;2024-01-06T15:38:00;96955.56;;;4.30;58.79
40285;BME280;25997;50.214;19.354;2024-01-06T15:41:04;96947.78;;;4.31;58.65
40285;BME280;25997;50.214;19.354;2024-01-06T15:44:07;96946.78;;;4.26;58.65
40285;BME280;25997;50.214;19.354;2024-01-06T15:47:10;96945.00;;;4.25;58.71
40285;BME280;25997;50.214;19.354;2024-01-06T15:50:13;96945.63;;;4.18;58.82
40285;BME280;25997;50.214;19.354;2024-01-06T15:53:15;96948.09;;;4.13;59.01
40285;BME280;25997;50.214;19.354;2024-01-06T15:56:20;96951.75;;;4.20;58.76
40285;BME280;25997;50.214;19.354;2024-01-06T15:59:22;96950.94;;;4.21;58.73
40285;BME280;25997;50.214;19.354;2024-01-06T16:02:25;96954.28;;;4.17;58.72
40285;BME280;25997;50.214;19.354;2024-01-06T16:05:28;96959.50;;;4.18;58.84
40285;BME280;25997;50.214;19.354;2024-01-06T16:08:31;96958.59;;;4.16;58.71
40285;BME280;25997;50.214;19.354;2024-01-06T16:11:35;96955.22;;;4.19;58.77
40285;BME280;25997;50.214;19.354;2024-01-06T16:14:37;96961.19;;;4.16;58.75
40285;BME280;25997;50.214;19.354;2024-01-06T16:17:40;96950.63;;;4.12;58.76
40285;BME280;25997;50.214;19.354;2024-01-06T16:20:42;96957.06;;;3.98;58.87
40285;BME280;25997;50.214;19.354;2024-01-06T16:23:45;96960.47;;;3.95;58.94
40285;BME280;25997;50.214;19.354;2024-01-06T16:26:49;96955.22;;;3.94;59.04
40285;BME280;25997;50.214;19.354;2024-01-06T16:29:51;96961.41;;;3.97;58.95
40285;BME280;25997;50.214;19.354;2024-01-06T16:32:54;96958.38;;;3.85;58.90
40285;BME280;25997;50.214;19.354;2024-01-06T16:35:56;96952.22;;;3.82;58.88
40285;BME280;25997;50.214;19.354;2024-01-06T16:38:58;96961.59;;;3.78;58.80
40285;BME280;25997;50.214;19.354;2024-01-06T16:42:02;96966.91;;;3.81;58.68
40285;BME280;25997;50.214;19.354;2024-01-06T16:45:06;96965.97;;;3.79;58.50
40285;BME280;25997;50.214;19.354;2024-01-06T16:48:08;96957.25;;;3.77;58.52
40285;BME280;25997;50.214;19.354;2024-01-06T16:51:11;96955.22;;;3.69;58.49
40285;BME280;25997;50.214;19.354;2024-01-06T16:54:15;96960.88;;;3.57;58.73
40285;BME280;25997;50.214;19.354;2024-01-06T16:57:19;96967.56;;;3.51;58.79
40285;BME280;25997;50.214;19.354;2024-01-06T17:00:22;96969.03;;;3.44;58.93
40285;BME280;25997;50.214;19.354;2024-01-06T17:03:24;96968.59;;;3.32;59.05
40285;BME280;25997;50.214;19.354;2024-01-06T17:06:27;96975.25;;;3.25;59.24
40285;BME280;25997;50.214;19.354;2024-01-06T17:09:29;96975.94;;;3.20;59.31
40285;BME280;25997;50.214;19.354;2024-01-06T17:12:33;96975.81;;;3.17;59.35
40285;BME280;25997;50.214;19.354;2024-01-06T17:15:36;96976.88;;;3.22;59.21
40285;BME280;25997;50.214;19.354;2024-01-06T17:18:38;96984.53;;;3.19;59.07
40285;BME280;25997;50.214;19.354;2024-01-06T17:21:41;96979.16;;;3.14;59.05
40285;BME280;25997;50.214;19.354;2024-01-06T17:24:44;96982.78;;;2.96;59.65
40285;BME280;25997;50.214;19.354;2024-01-06T17:27:48;96978.44;;;2.95;59.70
40285;BME280;25997;50.214;19.354;2024-01-06T17:30:50;96986.75;;;2.86;59.84